Evan, Minnesota
Current Conditions -  °F | °C
As of 12:53 PM on Thursday 23 Oct 2014 (Local Time) from KRWF Reporting Station
Clear Clear  
Wind Chill: 65°   Ceiling: Unl
Heat Index: 65°   Visibility: 10mi
Dew Point: 46°   Wind: 7mph
Humidity: 50%   Direction: 250°WSW
Pressure: 29.99"   Gusts: NA
Location:  44.3713°N, 94.9134°W
Report Text: KRWF 231753Z AUTO 25006KT 10SM CLR 18/08 A2999 RMK AO2 SLP154 6//// T01830078 10183 20067 58004
Loading
Personal Weather Stations






























Interactive Weather Map
Tropical Storm Tracking
New forecast layout! Learn more

10-Day Weather Forecast

Advertisements
Track Severe Weather on mobile